Time;durP1;ratioP1;P1;durP2;ratioP2;P2;SDS_P1;SDS_P2;PMS_P1;PMS_P2;Temp;Humidity;BMP_temperature;BMP_pressure;BME280_temperature;BME280_humidity;BME280_pressure;Samples;Min_cycle;Max_cycle;Signal;HPM_P1;HPM_P2
2023/04/04 00:07:08;;;;;;;6.00;4.70;;;;;;;-3.39;67.04;100408.67;437596;1250;140106;-70
2023/04/04 00:17:13;;;;;;;;;;;;;;;-3.46;67.03;100404.34;437260;1251;139489;-69
2023/04/04 00:27:18;;;;;;;8.80;4.00;;;;;;;-3.55;67.55;100395.21;437366;1251;126799;-70
2023/04/04 00:37:23;;;;;;;;;;;;;;;-3.60;67.57;100392.77;437618;1251;138948;-68
2023/04/04 00:47:31;;;;;;;11.00;6.90;;;;;;;-3.64;67.96;100375.98;437457;1251;125630;-69
2023/04/04 00:57:37;;;;;;;10.10;4.90;;;;;;;-3.73;68.04;100370.45;436913;1250;140972;-69
2023/04/04 01:07:43;;;;;;;6.10;3.40;;;;;;;-3.84;68.13;100366.77;440002;1251;139942;-69
2023/04/04 01:17:50;;;;;;;6.00;3.70;;;;;;;-3.94;68.34;100357.29;437117;1251;139308;-70
2023/04/04 01:27:56;;;;;;;8.00;3.20;;;;;;;-4.02;68.43;100352.27;437161;1253;140161;-69
2023/04/04 01:38:14;;;;;;;5.10;3.00;;;;;;;-4.03;68.47;100343.52;436984;1250;140990;-68
2023/04/04 01:48:21;;;;;;;5.40;2.80;;;;;;;-4.09;68.56;100347.92;437277;1250;139650;-68
2023/04/04 01:58:27;;;;;;;8.90;4.00;;;;;;;-4.17;68.69;100351.11;436662;1251;139756;-69
2023/04/04 02:08:32;;;;;;;7.60;3.50;;;;;;;-4.24;68.87;100339.60;436415;1251;140136;-67
2023/04/04 02:18:39;;;;;;;5.20;4.00;;;;;;;-4.27;68.88;100340.77;436956;1251;140419;-68
2023/04/04 02:28:45;;;;;;;4.80;3.80;;;;;;;-4.28;69.30;100339.73;437214;1251;139451;-68
2023/04/04 02:38:51;;;;;;;8.00;3.20;;;;;;;-4.33;69.40;100332.34;437844;1250;139753;-71
2023/04/04 02:48:56;;;;;;;5.90;3.10;;;;;;;-4.39;69.47;100337.75;436841;1251;139723;-69
2023/04/04 02:59:02;;;;;;;5.80;3.00;;;;;;;-4.43;69.61;100334.47;436555;1251;139241;-68
2023/04/04 03:09:08;;;;;;;6.00;2.80;;;;;;;-4.43;69.78;100337.04;436623;1253;139613;-68
2023/04/04 03:19:14;;;;;;;4.10;2.80;;;;;;;-4.47;69.79;100339.55;436454;1251;139473;-68
2023/04/04 03:29:19;;;;;;;4.40;3.20;;;;;;;-4.52;70.05;100344.64;436244;1251;139345;-68
2023/04/04 03:39:29;;;;;;;6.20;3.30;;;;;;;-4.65;70.38;100343.15;436545;1253;139545;-68
2023/04/04 03:49:35;;;;;;;5.00;3.50;;;;;;;-4.74;70.71;100337.41;437109;1251;140498;-69
2023/04/04 03:59:41;;;;;;;6.00;3.90;;;;;;;-4.80;71.15;100338.71;436583;1253;140467;-69
2023/04/04 04:09:47;;;;;;;5.90;4.10;;;;;;;-4.81;71.48;100333.39;436413;1253;141086;-68
2023/04/04 04:19:53;;;;;;;7.10;4.20;;;;;;;-4.81;71.86;100332.21;437521;1250;139277;-69
2023/04/04 04:29:59;;;;;;;8.40;5.00;;;;;;;-4.71;72.07;100338.80;436833;1250;140174;-70
2023/04/04 04:40:07;;;;;;;11.70;6.20;;;;;;;-4.52;72.26;100330.11;437526;1250;139674;-68
2023/04/04 04:50:15;;;;;;;12.40;7.40;;;;;;;-4.23;72.48;100332.09;436899;1253;140270;-68
2023/04/04 05:00:22;;;;;;;13.80;8.90;;;;;;;-3.86;72.40;100339.71;436779;1250;140646;-68
2023/04/04 05:10:28;;;;;;;15.10;8.50;;;;;;;-3.47;72.21;100337.05;437043;1253;140919;-70
2023/04/04 05:20:35;;;;;;;8.10;5.80;;;;;;;-2.64;72.25;100335.64;436914;1251;139735;-68
2023/04/04 05:30:40;;;;;;;7.00;3.90;;;;;;;1.01;69.71;100323.36;437206;1251;140370;-69
2023/04/04 05:40:47;;;;;;;8.10;4.80;;;;;;;6.17;66.03;100313.22;436596;1251;138844;-69
2023/04/04 05:50:52;;;;;;;8.80;4.30;;;;;;;12.62;56.57;100298.47;436504;1250;138903;-68
2023/04/04 06:00:58;;;;;;;5.90;3.80;;;;;;;15.65;49.28;100289.52;437103;1251;139578;-69
2023/04/04 06:11:04;;;;;;;7.40;3.40;;;;;;;17.15;44.36;100285.38;437132;1250;138414;-70
2023/04/04 06:21:10;;;;;;;14.20;4.00;;;;;;;13.54;42.02;100293.51;436969;1251;138367;-69
2023/04/04 06:31:16;;;;;;;8.40;4.80;;;;;;;10.44;42.53;100299.66;436545;1251;140863;-69
2023/04/04 06:41:22;;;;;;;8.30;4.90;;;;;;;8.10;43.54;100297.67;436782;1253;138206;-69
2023/04/04 06:51:27;;;;;;;7.70;3.10;;;;;;;5.82;45.22;100303.13;436993;1250;138688;-69
2023/04/04 07:01:36;;;;;;;5.20;3.40;;;;;;;6.71;45.62;100295.02;437145;1253;138403;-70
2023/04/04 07:11:45;;;;;;;6.10;2.70;;;;;;;4.82;45.77;100301.23;437044;1251;138195;-68
2023/04/04 07:21:52;;;;;;;6.70;1.70;;;;;;;5.20;46.94;100293.85;436832;1251;138430;-69
2023/04/04 07:31:58;;;;;;;4.90;2.50;;;;;;;5.43;44.85;100289.89;436959;1251;139092;-69
2023/04/04 07:42:06;;;;;;;3.90;2.10;;;;;;;2.67;47.25;100294.14;437349;1251;138159;-70
2023/04/04 07:52:12;;;;;;;4.90;2.30;;;;;;;1.92;48.53;100294.52;438756;1250;138265;-69
2023/04/04 08:02:18;;;;;;;5.10;2.30;;;;;;;1.15;49.56;100292.93;437323;1253;138081;-68
2023/04/04 08:12:28;;;;;;;4.10;1.60;;;;;;;0.97;49.92;100286.27;437173;1251;138186;-68
2023/04/04 08:22:36;;;;;;;3.70;1.70;;;;;;;1.42;49.67;100279.24;437587;1253;139096;-68
2023/04/04 08:32:43;;;;;;;7.60;2.70;;;;;;;1.36;50.14;100272.08;437397;1253;138553;-69
2023/04/04 08:42:52;;;;;;;1.70;1.10;;;;;;;1.38;49.84;100265.86;437229;1253;139314;-69
2023/04/04 08:53:01;;;;;;;6.80;2.10;;;;;;;1.59;48.78;100265.36;436853;1253;139953;-69
2023/04/04 09:03:15;;;;;;;3.30;1.40;;;;;;;1.60;49.19;100267.08;437469;1253;139057;-67
2023/04/04 09:13:21;;;;;;;3.70;2.00;;;;;;;1.48;49.45;100266.21;438021;1250;139151;-70
2023/04/04 09:23:27;;;;;;;3.70;2.10;;;;;;;1.13;50.19;100269.33;437913;1253;138429;-71
2023/04/04 09:33:34;;;;;;;17.90;5.60;;;;;;;1.32;50.36;100270.95;437845;1251;139242;-68
2023/04/04 09:43:40;;;;;;;4.40;2.00;;;;;;;1.48;49.78;100274.00;438069;1253;138578;-68
2023/04/04 09:53:49;;;;;;;2.70;1.70;;;;;;;1.43;49.51;100272.34;438157;1251;61365;-69
2023/04/04 10:03:58;;;;;;;4.40;1.90;;;;;;;1.49;49.32;100276.55;437459;1253;138266;-69
2023/04/04 10:14:05;;;;;;;4.00;1.90;;;;;;;1.70;49.14;100275.02;437966;1253;139621;-69
2023/04/04 10:24:13;;;;;;;3.60;1.80;;;;;;;1.84;48.66;100270.31;437980;1251;138540;-68
2023/04/04 10:34:25;;;;;;;3.10;1.40;;;;;;;1.89;48.12;100264.86;437483;1250;139392;-69
2023/04/04 10:44:34;;;;;;;1.90;1.40;;;;;;;2.17;47.78;100263.16;438075;1253;138635;-68
2023/04/04 10:54:41;;;;;;;2.00;1.50;;;;;;;2.14;47.70;100261.48;437464;1250;353883;-68
2023/04/04 11:04:46;;;;;;;;;;;;;;;2.26;47.45;100259.01;437855;1251;139017;-69
2023/04/04 11:15:08;;;;;;;4.80;1.40;;;;;;;2.38;46.90;100253.79;437695;1251;124843;-69
2023/04/04 11:25:38;;;;;;;4.30;1.40;;;;;;;2.80;46.32;100248.45;437462;1253;138572;-68
2023/04/04 11:35:51;;;;;;;5.20;2.10;;;;;;;2.87;45.75;100242.23;440010;1253;139744;-70
2023/04/04 11:46:09;;;;;;;3.60;1.50;;;;;;;2.69;46.04;100236.05;436935;1253;138735;-68
2023/04/04 11:56:19;;;;;;;7.20;1.70;;;;;;;2.44;45.86;100226.70;437529;1253;138683;-68
2023/04/04 12:06:26;;;;;;;5.30;3.00;;;;;;;2.35;46.26;100220.34;437396;1253;138957;-69
2023/04/04 12:16:32;;;;;;;5.40;2.30;;;;;;;2.41;46.21;100216.23;437413;1251;138670;-69
2023/04/04 12:26:40;;;;;;;3.30;2.10;;;;;;;2.41;46.03;100217.95;437764;1253;139416;-68
2023/04/04 12:36:48;;;;;;;8.60;2.80;;;;;;;2.71;46.03;100217.16;438690;1253;138701;-68
2023/04/04 12:46:56;;;;;;;6.80;2.40;;;;;;;2.60;46.40;100208.73;437364;1253;138490;-67
2023/04/04 12:57:04;;;;;;;2.80;2.10;;;;;;;2.18;46.76;100201.29;436965;1253;138111;-69
2023/04/04 13:07:24;;;;;;;5.90;3.10;;;;;;;1.89;47.34;100206.83;437451;1251;139149;-68
2023/04/04 13:17:43;;;;;;;4.70;3.00;;;;;;;2.11;47.50;100195.92;437645;1253;138394;-68
2023/04/04 13:27:49;;;;;;;3.50;1.70;;;;;;;2.23;47.01;100189.63;437589;1253;139270;-69
2023/04/04 13:37:56;;;;;;;2.70;1.40;;;;;;;2.28;46.59;100191.27;436796;1253;138145;-68
2023/04/04 13:48:02;;;;;;;5.20;3.00;;;;;;;2.27;46.09;100193.19;437302;1253;138693;-68
2023/04/04 13:58:08;;;;;;;3.80;2.50;;;;;;;2.32;45.77;100185.30;437552;1253;138049;-69
2023/04/04 14:08:14;;;;;;;3.80;2.50;;;;;;;2.13;45.41;100178.42;437384;1251;138999;-68
2023/04/04 14:18:20;;;;;;;6.10;3.70;;;;;;;1.84;46.06;100171.20;437207;1253;138836;-70
2023/04/04 14:28:26;;;;;;;2.50;2.00;;;;;;;1.94;46.17;100174.13;437032;1255;138902;-68
2023/04/04 14:38:33;;;;;;;4.90;2.40;;;;;;;1.99;45.43;100171.77;436514;1254;138576;-68
2023/04/04 14:48:39;;;;;;;3.00;2.20;;;;;;;2.06;46.27;100165.09;436758;1253;138865;-68
2023/04/04 14:58:45;;;;;;;5.00;2.40;;;;;;;1.85;46.61;100167.05;436348;1254;138020;-68
2023/04/04 15:08:51;;;;;;;5.00;2.30;;;;;;;1.69;46.47;100169.91;449020;1251;138478;-68
2023/04/04 15:18:56;;;;;;;3.60;1.80;;;;;;;1.71;46.60;100162.28;437266;1254;138658;-67
2023/04/04 15:29:03;;;;;;;5.60;2.30;;;;;;;1.83;46.54;100152.92;437023;1253;138237;-69
2023/04/04 15:39:10;;;;;;;4.50;2.70;;;;;;;1.92;46.32;100158.44;439061;1253;138747;-68
2023/04/04 15:49:16;;;;;;;3.00;2.00;;;;;;;1.83;46.22;100158.60;437454;1253;138838;-68
2023/04/04 15:59:22;;;;;;;4.70;3.20;;;;;;;1.61;46.41;100163.66;437151;1253;138657;-68
2023/04/04 16:09:28;;;;;;;6.90;3.50;;;;;;;1.49;46.75;100155.95;437186;1251;139022;-67
2023/04/04 16:19:35;;;;;;;2.90;2.10;;;;;;;1.34;46.95;100145.15;437325;1251;139317;-69
2023/04/04 16:29:44;;;;;;;5.90;3.90;;;;;;;1.31;47.06;100138.31;437304;1251;138067;-69
2023/04/04 16:39:51;;;;;;;4.10;2.30;;;;;;;1.13;47.53;100137.40;437015;1253;138295;-69
2023/04/04 16:49:57;;;;;;;4.50;2.60;;;;;;;0.90;47.83;100139.82;437668;1254;138947;-69
2023/04/04 17:00:05;;;;;;;7.30;2.70;;;;;;;0.78;48.09;100140.17;437468;1253;138127;-69
2023/04/04 17:10:13;;;;;;;4.00;2.10;;;;;;;0.62;48.69;100136.44;437425;1251;138232;-69
2023/04/04 17:20:19;;;;;;;16.60;7.70;;;;;;;0.47;49.47;100134.06;436965;1251;138089;-68
2023/04/04 17:30:25;;;;;;;14.20;6.30;;;;;;;0.22;50.31;100125.08;436714;1251;138514;-68
2023/04/04 17:40:45;;;;;;;18.40;11.30;;;;;;;-0.05;50.99;100128.50;437518;1253;138270;-68
2023/04/04 17:50:52;;;;;;;19.10;11.20;;;;;;;-0.39;52.31;100135.06;437251;1251;140664;-68
2023/04/04 18:00:58;;;;;;;26.50;13.20;;;;;;;-0.61;53.88;100141.13;438109;1253;138632;-68
2023/04/04 18:11:05;;;;;;;20.20;11.70;;;;;;;-1.11;54.61;100136.88;436592;1251;138917;-68
2023/04/04 18:21:10;;;;;;;20.30;12.90;;;;;;;-1.66;55.93;100144.25;436701;1253;138928;-68
2023/04/04 18:31:17;;;;;;;18.90;13.50;;;;;;;-2.09;56.74;100150.60;436496;1251;139515;-68
2023/04/04 18:41:23;;;;;;;16.50;12.60;;;;;;;-2.36;58.40;100152.39;436703;1251;138492;-70
2023/04/04 18:51:28;;;;;;;17.50;10.60;;;;;;;-2.60;59.02;100157.38;436614;1254;139043;-70
2023/04/04 19:01:34;;;;;;;31.10;17.40;;;;;;;-2.72;59.45;100159.46;436769;1253;139670;-69
2023/04/04 19:11:42;;;;;;;36.30;19.80;;;;;;;-2.91;60.12;100158.77;436732;1253;139733;-71
2023/04/04 19:21:48;;;;;;;34.40;20.50;;;;;;;-3.00;60.75;100160.64;436530;1253;139234;-68
2023/04/04 19:31:55;;;;;;;31.70;19.70;;;;;;;-2.88;61.36;100159.80;436674;1251;139457;-70
2023/04/04 19:42:05;;;;;;;52.70;24.70;;;;;;;-2.82;61.92;100155.34;436808;1250;139469;-70
2023/04/04 19:52:12;;;;;;;76.40;34.00;;;;;;;-2.77;62.61;100156.71;436257;1250;139262;-70
2023/04/04 20:02:59;;;;;;;47.70;26.80;;;;;;;-2.76;62.92;100155.52;436952;1252;140253;-70
2023/04/04 20:13:06;;;;;;;50.60;26.10;;;;;;;-2.85;63.89;100152.77;437044;1251;139846;-70
2023/04/04 20:23:13;;;;;;;40.70;24.20;;;;;;;-2.89;63.98;100151.73;437544;1250;140595;-70
2023/04/04 20:33:35;;;;;;;37.30;20.10;;;;;;;-2.78;63.84;100149.17;436801;1250;139937;-70
2023/04/04 20:43:44;;;;;;;34.10;18.00;;;;;;;-2.52;64.09;100138.70;436801;1251;140720;-70
2023/04/04 20:53:50;;;;;;;28.20;17.70;;;;;;;-2.30;64.31;100132.66;437312;1253;141117;-70
2023/04/04 21:03:58;;;;;;;28.60;15.80;;;;;;;-2.13;64.62;100132.95;437097;1253;139298;-68
2023/04/04 21:14:05;;;;;;;21.90;13.00;;;;;;;-2.03;64.97;100133.10;436529;1253;140100;-69
2023/04/04 21:24:11;;;;;;;16.50;10.00;;;;;;;-1.89;65.72;100135.95;436981;1253;140044;-70
2023/04/04 21:34:20;;;;;;;14.20;8.20;;;;;;;-1.67;66.32;100131.56;436996;1251;140440;-68
2023/04/04 21:44:26;;;;;;;14.30;6.40;;;;;;;-1.50;66.42;100133.02;436840;1250;139341;-69
2023/04/04 21:54:32;;;;;;;6.90;5.30;;;;;;;-1.36;67.15;100130.35;436703;1253;139321;-70
2023/04/04 22:04:38;;;;;;;7.00;5.20;;;;;;;-1.31;67.49;100124.66;436460;1253;140464;-68
2023/04/04 22:14:44;;;;;;;11.30;8.00;;;;;;;-1.25;68.01;100126.69;437611;1251;138755;-72
2023/04/04 22:24:49;;;;;;;;;;;;;;;-1.33;68.95;100127.93;439279;1253;139054;-74
2023/04/04 22:34:56;;;;;;;9.50;5.80;;;;;;;-1.43;69.56;100126.63;439476;1252;125224;-73
2023/04/04 22:45:02;;;;;;;12.30;8.00;;;;;;;-1.67;70.10;100118.35;438030;1253;167397;-63
2023/04/04 22:55:09;;;;;;;13.90;8.60;;;;;;;-1.90;70.18;100115.52;436295;1250;140356;-67
2023/04/04 23:05:16;;;;;;;14.20;9.50;;;;;;;-2.10;70.79;100106.85;436772;1251;139353;-66
2023/04/04 23:15:22;;;;;;;14.10;9.70;;;;;;;-2.43;71.48;100096.15;436697;1251;140079;-66
2023/04/04 23:25:26;;;;;;;;;;;;;;;-2.86;72.30;100079.09;436198;1251;139854;-66
2023/04/04 23:35:32;;;;;;;12.30;8.80;;;;;;;-3.29;73.22;100076.70;436437;1251;125477;-65
2023/04/04 23:45:39;;;;;;;;;;;;;;;-3.65;74.22;100082.46;437023;1251;139996;-67
2023/04/04 23:55:45;;;;;;;16.60;10.30;;;;;;;-3.89;75.30;100080.02;437045;1253;126644;-66
